Time;durP1;ratioP1;P1;durP2;ratioP2;P2;SDS_P1;SDS_P2;PMS_P1;PMS_P2;Temp;Humidity;BMP_temperature;BMP_pressure;BME280_temperature;BME280_humidity;BME280_pressure;Samples;Min_cycle;Max_cycle;Signal;HPM_P1;HPM_P2
2021/08/23 00:01:26;;;;;;;25.23;23.10;;;17.70;1.00;;;;;;6144205;23;20414;-81
2021/08/23 00:03:53;;;;;;;24.47;22.27;;;17.60;1.00;;;;;;6142970;23;20367;-82
2021/08/23 00:06:20;;;;;;;24.53;22.43;;;17.60;1.00;;;;;;6142968;23;21045;-82
2021/08/23 00:08:46;;;;;;;25.20;23.03;;;17.60;1.00;;;;;;6145189;23;20381;-82
2021/08/23 00:11:16;;;;;;;27.13;24.73;;;17.60;1.00;;;;;;6119089;23;21742;-81
2021/08/23 00:13:43;;;;;;;27.27;24.87;;;17.60;1.00;;;;;;6117369;23;20379;-82
2021/08/23 00:16:10;;;;;;;26.80;24.50;;;17.60;1.00;;;;;;6145401;23;20489;-82
2021/08/23 00:18:36;;;;;;;28.80;26.13;;;17.60;1.00;;;;;;6144651;23;21128;-81
2021/08/23 00:21:11;;;;;;;27.90;25.40;;;17.60;1.00;;;;;;6137423;23;20497;-80
2021/08/23 00:23:37;;;;;;;28.43;25.93;;;17.70;1.00;;;;;;6141076;23;21359;-80
2021/08/23 00:26:04;;;;;;;28.00;25.50;;;17.70;1.00;;;;;;6146996;23;20418;-80
2021/08/23 00:28:32;;;;;;;27.67;25.27;;;17.70;1.00;;;;;;6144614;23;20423;-83
2021/08/23 00:31:00;;;;;;;28.47;25.87;;;17.80;1.00;;;;;;6159659;23;21204;-80
2021/08/23 00:33:29;;;;;;;27.27;24.67;;;17.80;1.00;;;;;;6158954;23;20430;-81
2021/08/23 00:35:55;;;;;;;27.57;25.10;;;17.80;1.00;;;;;;6147973;23;20421;-80
2021/08/23 00:38:24;;;;;;;27.27;24.93;;;17.80;1.00;;;;;;6123696;23;21349;-80
2021/08/23 00:40:51;;;;;;;27.77;25.20;;;17.90;1.00;;;;;;6152406;23;20407;-80
2021/08/23 00:43:17;;;;;;;27.23;24.73;;;17.80;1.00;;;;;;6151265;23;20392;-78
2021/08/23 00:45:46;;;;;;;27.73;25.00;;;17.80;1.00;;;;;;6146192;23;20892;-80
2021/08/23 00:48:13;;;;;;;27.93;25.40;;;17.90;1.00;;;;;;6119215;23;21239;-80
2021/08/23 00:50:40;;;;;;;28.20;25.47;;;17.80;1.00;;;;;;6164424;23;20405;-81
2021/08/23 00:53:06;;;;;;;29.40;26.57;;;17.90;1.00;;;;;;6152618;23;20437;-81
2021/08/23 00:55:34;;;;;;;27.20;24.70;;;17.90;1.00;;;;;;6147779;23;20414;-81
2021/08/23 00:58:03;;;;;;;28.00;25.50;;;17.90;1.00;;;;;;6142918;23;20616;-82
2021/08/23 01:00:32;;;;;;;26.97;24.57;;;17.90;1.00;;;;;;6146602;23;20426;-81
2021/08/23 01:03:06;;;;;;;28.80;26.40;;;17.90;1.00;;;;;;6143093;23;20400;-81
2021/08/23 01:05:34;;;;;;;26.07;23.77;;;17.90;1.00;;;;;;6145278;23;20402;-80
2021/08/23 01:08:04;;;;;;;28.93;26.33;;;17.90;1.00;;;;;;6144581;23;21052;-80
2021/08/23 01:10:37;;;;;;;26.27;23.83;;;18.00;1.00;;;;;;6143118;23;20394;-79
2021/08/23 01:13:06;;;;;;;26.10;23.63;;;18.00;1.00;;;;;;6144882;23;20399;-81
2021/08/23 01:15:33;;;;;;;26.57;24.27;;;18.00;1.00;;;;;;6144986;23;20407;-82
2021/08/23 01:18:02;;;;;;;25.90;23.37;;;18.00;1.00;;;;;;6117889;23;20406;-80
2021/08/23 01:20:30;;;;;;;24.53;22.30;;;18.10;1.00;;;;;;6146474;23;20444;-80
2021/08/23 01:22:57;;;;;;;26.10;23.70;;;18.10;1.00;;;;;;6118681;23;21337;-80
2021/08/23 01:25:28;;;;;;;24.33;22.27;;;18.00;1.00;;;;;;6118366;23;21023;-80
2021/08/23 01:28:07;;;;;;;23.50;21.50;;;18.00;1.00;;;;;;6148445;23;21101;-80
2021/08/23 01:30:44;;;;;;;23.40;21.30;;;18.00;1.00;;;;;;6145116;23;20420;-81
2021/08/23 01:33:12;;;;;;;25.37;23.23;;;17.90;1.00;;;;;;6146209;23;20457;-81
2021/08/23 01:35:40;;;;;;;22.93;20.73;;;17.90;1.00;;;;;;6148041;23;20408;-81
2021/08/23 01:38:07;;;;;;;23.50;21.50;;;17.90;1.00;;;;;;6122023;23;20889;-80
2021/08/23 01:40:36;;;;;;;22.10;20.20;;;18.00;1.00;;;;;;6147051;23;20958;-79
2021/08/23 01:43:04;;;;;;;24.10;21.90;;;18.00;1.00;;;;;;6147540;23;20417;-80
2021/08/23 01:45:30;;;;;;;22.17;20.27;;;18.00;1.00;;;;;;6121195;23;20426;-79
2021/08/23 01:47:57;;;;;;;21.47;19.43;;;17.90;1.00;;;;;;6147263;23;20390;-80
2021/08/23 01:50:25;;;;;;;23.03;21.07;;;17.90;1.00;;;;;;6147568;23;20469;-80
2021/08/23 01:52:52;;;;;;;23.13;21.10;;;17.90;1.00;;;;;;6146943;23;20411;-79
2021/08/23 01:55:18;;;;;;;20.93;19.23;;;17.90;1.00;;;;;;6131712;23;20391;-80
2021/08/23 01:57:45;;;;;;;20.93;19.10;;;17.90;1.00;;;;;;6132569;23;20438;-80
2021/08/23 02:00:13;;;;;;;20.57;18.80;;;17.90;1.00;;;;;;6147322;23;20399;-80
2021/08/23 02:02:40;;;;;;;22.07;20.27;;;17.90;1.00;;;;;;6146863;23;20441;-79
2021/08/23 02:05:08;;;;;;;19.87;18.20;;;17.80;1.00;;;;;;6146588;23;20497;-80
2021/08/23 02:07:38;;;;;;;20.50;18.60;;;17.80;1.00;;;;;;6145896;23;20466;-80
2021/08/23 02:10:06;;;;;;;19.80;18.10;;;17.90;1.00;;;;;;6120103;23;20577;-79
2021/08/23 02:12:33;;;;;;;21.27;19.37;;;17.90;1.00;;;;;;6144844;23;20879;-79
2021/08/23 02:14:59;;;;;;;22.00;20.10;;;17.90;1.00;;;;;;6146985;23;20417;-80
2021/08/23 02:17:26;;;;;;;20.30;18.60;;;17.90;1.00;;;;;;6147525;23;20500;-80
2021/08/23 02:19:53;;;;;;;20.63;18.93;;;17.90;1.00;;;;;;6144953;23;20465;-79
2021/08/23 02:22:20;;;;;;;19.87;18.10;;;17.90;1.00;;;;;;6146099;23;20391;-79
2021/08/23 02:24:49;;;;;;;19.07;17.47;;;17.80;1.00;;;;;;6121976;23;20464;-79
2021/08/23 02:27:16;;;;;;;18.53;17.03;;;17.90;1.00;;;;;;6148170;23;20518;-79
2021/08/23 02:29:42;;;;;;;18.70;17.10;;;17.90;1.00;;;;;;6147540;23;20426;-79
2021/08/23 02:32:09;;;;;;;18.30;16.80;;;17.80;1.00;;;;;;6135792;23;20500;-79
2021/08/23 02:34:38;;;;;;;19.47;17.87;;;17.80;1.00;;;;;;6149462;23;20504;-79
2021/08/23 02:37:05;;;;;;;17.33;15.93;;;17.80;1.00;;;;;;6149617;23;20634;-80
2021/08/23 02:39:32;;;;;;;17.60;16.10;;;17.80;1.00;;;;;;6150093;23;20422;-79
2021/08/23 02:42:00;;;;;;;16.27;14.87;;;17.80;1.00;;;;;;6120608;23;20478;-80
2021/08/23 02:44:27;;;;;;;15.87;14.60;;;17.80;1.00;;;;;;6149059;23;20549;-81
2021/08/23 02:46:53;;;;;;;15.03;13.73;;;17.80;1.00;;;;;;6150500;23;20444;-80
2021/08/23 02:49:20;;;;;;;14.47;13.27;;;17.70;1.00;;;;;;6162762;23;20529;-80
2021/08/23 02:51:47;;;;;;;13.00;11.80;;;17.70;1.00;;;;;;6164464;23;20510;-80
2021/08/23 02:54:14;;;;;;;11.37;10.47;;;17.60;1.00;;;;;;6148608;23;20428;-79
2021/08/23 02:56:41;;;;;;;12.00;11.10;;;17.60;1.00;;;;;;6148981;23;20475;-79
2021/08/23 02:59:09;;;;;;;11.63;10.63;;;17.60;1.00;;;;;;6123852;23;20540;-79
2021/08/23 03:01:36;;;;;;;10.63;9.83;;;17.50;1.00;;;;;;6163869;23;20488;-79
2021/08/23 03:04:05;;;;;;;9.80;8.90;;;17.50;1.00;;;;;;6161050;23;21648;-79
2021/08/23 03:06:32;;;;;;;10.17;9.37;;;17.50;1.00;;;;;;6161538;23;20402;-80
2021/08/23 03:08:59;;;;;;;9.53;8.73;;;17.50;1.00;;;;;;6152685;23;20455;-82
2021/08/23 03:11:30;;;;;;;8.30;7.50;;;17.50;1.00;;;;;;6150940;23;20521;-77
2021/08/23 03:13:57;;;;;;;7.20;6.63;;;17.50;1.00;;;;;;6151130;23;20485;-80
2021/08/23 03:16:26;;;;;;;7.33;6.73;;;17.50;1.00;;;;;;6150288;23;20373;-80
2021/08/23 03:18:53;;;;;;;6.97;6.30;;;17.40;1.00;;;;;;6125116;23;21161;-78
2021/08/23 03:21:19;;;;;;;7.73;7.03;;;17.30;1.00;;;;;;6150271;23;20876;-79
2021/08/23 03:23:46;;;;;;;6.70;6.17;;;17.30;1.00;;;;;;6148058;23;21142;-79
2021/08/23 03:26:13;;;;;;;6.90;6.40;;;17.20;1.00;;;;;;6150258;23;21548;-79
2021/08/23 03:28:40;;;;;;;6.73;6.23;;;17.10;1.00;;;;;;6149725;23;20500;-79
2021/08/23 03:31:07;;;;;;;7.03;6.43;;;17.10;1.00;;;;;;6152829;23;20415;-80
2021/08/23 03:33:36;;;;;;;7.83;7.23;;;17.00;1.00;;;;;;6149803;23;20473;-79
2021/08/23 03:36:03;;;;;;;8.63;7.83;;;16.90;1.00;;;;;;6135956;23;20402;-79
2021/08/23 03:38:29;;;;;;;9.13;8.40;;;16.80;1.00;;;;;;6168832;23;20370;-79
2021/08/23 03:40:56;;;;;;;8.97;8.27;;;16.80;1.00;;;;;;6158290;23;20652;-79
2021/08/23 03:43:23;;;;;;;9.60;8.80;;;16.80;1.00;;;;;;6157251;23;20420;-79
2021/08/23 03:45:50;;;;;;;9.53;8.70;;;16.80;1.00;;;;;;6159651;23;20366;-80
2021/08/23 03:48:17;;;;;;;10.60;9.70;;;16.70;1.00;;;;;;6160502;23;20393;-80
2021/08/23 03:50:45;;;;;;;10.60;9.60;;;16.70;1.00;;;;;;6167737;23;20377;-78
2021/08/23 03:53:11;;;;;;;11.00;9.90;;;16.60;1.00;;;;;;6159298;23;20461;-80
2021/08/23 03:55:38;;;;;;;10.63;9.53;;;16.60;1.00;;;;;;6155901;23;20826;-80
2021/08/23 03:58:07;;;;;;;11.87;10.80;;;16.50;1.00;;;;;;6153792;23;20424;-81
2021/08/23 04:00:34;;;;;;;10.73;9.80;;;16.40;1.00;;;;;;6153591;23;20418;-80
2021/08/23 04:03:01;;;;;;;11.50;10.40;;;16.40;1.00;;;;;;6154496;23;20465;-81
2021/08/23 04:05:27;;;;;;;12.57;11.37;;;16.40;1.00;;;;;;6160214;23;20381;-79
2021/08/23 04:07:56;;;;;;;12.27;11.00;;;16.50;1.00;;;;;;6164764;23;20552;-79
2021/08/23 04:10:24;;;;;;;11.90;10.80;;;16.50;1.00;;;;;;6160103;23;20434;-79
2021/08/23 04:12:50;;;;;;;13.73;12.47;;;16.50;1.00;;;;;;6162557;23;20414;-80
2021/08/23 04:15:17;;;;;;;15.53;14.07;;;16.50;1.00;;;;;;6173062;23;20400;-79
2021/08/23 04:17:44;;;;;;;13.63;12.37;;;16.50;1.00;;;;;;6136222;23;20944;-78
2021/08/23 04:20:12;;;;;;;14.27;12.83;;;16.50;1.00;;;;;;6166232;23;20520;-84
2021/08/23 04:22:39;;;;;;;13.27;12.07;;;16.50;1.00;;;;;;6142695;23;20429;-83
2021/08/23 04:25:08;;;;;;;11.67;10.57;;;16.40;1.00;;;;;;6185255;23;20379;-79
2021/08/23 04:27:35;;;;;;;12.63;11.60;;;16.40;1.00;;;;;;6159913;23;20417;-79
2021/08/23 04:30:02;;;;;;;11.90;10.90;;;16.30;1.00;;;;;;6187306;23;20364;-80
2021/08/23 04:32:28;;;;;;;12.30;11.10;;;16.30;1.00;;;;;;6160859;23;20416;-79
2021/08/23 04:34:55;;;;;;;13.03;11.77;;;16.20;1.00;;;;;;6185432;23;20362;-79
2021/08/23 04:37:22;;;;;;;11.97;10.87;;;16.20;1.00;;;;;;6184948;23;20386;-80
2021/08/23 04:39:49;;;;;;;11.90;10.80;;;16.20;1.00;;;;;;6184977;23;20365;-81
2021/08/23 04:42:17;;;;;;;11.67;10.43;;;16.20;1.00;;;;;;6156088;23;20374;-81
2021/08/23 04:44:46;;;;;;;9.90;8.90;;;16.20;1.00;;;;;;6159067;23;20369;-81
2021/08/23 04:47:13;;;;;;;10.73;9.70;;;16.10;1.00;;;;;;6157700;23;20413;-80
2021/08/23 04:49:40;;;;;;;10.33;9.33;;;16.10;1.00;;;;;;6184259;23;20363;-81
2021/08/23 04:52:07;;;;;;;10.23;9.23;;;16.00;1.00;;;;;;6183345;23;20380;-80
2021/08/23 04:54:34;;;;;;;9.30;8.50;;;15.90;1.00;;;;;;6183335;23;20395;-81
2021/08/23 04:57:01;;;;;;;9.70;8.90;;;15.80;1.00;;;;;;6183487;23;20364;-80
2021/08/23 04:59:30;;;;;;;10.40;9.23;;;15.80;1.00;;;;;;6157123;23;20904;-81
2021/08/23 05:01:59;;;;;;;9.93;9.13;;;15.80;1.00;;;;;;6182694;23;20360;-82
2021/08/23 05:04:26;;;;;;;9.93;9.00;;;15.80;1.00;;;;;;6154459;23;20412;-82
2021/08/23 05:06:53;;;;;;;10.60;9.50;;;15.80;1.00;;;;;;6154869;23;20404;-82
2021/08/23 05:09:21;;;;;;;9.07;7.93;;;15.80;1.00;;;;;;6181808;23;20367;-81
2021/08/23 05:11:49;;;;;;;10.60;9.70;;;15.90;1.00;;;;;;6154003;23;20388;-82
2021/08/23 05:14:16;;;;;;;9.47;8.47;;;15.90;1.00;;;;;;6179223;23;20365;-80
2021/08/23 05:16:44;;;;;;;10.03;9.10;;;15.90;1.00;;;;;;6178295;23;20411;-86
2021/08/23 05:19:11;;;;;;;9.37;8.47;;;16.10;1.00;;;;;;6168006;23;20388;-82
2021/08/23 05:21:39;;;;;;;7.63;6.93;;;16.10;1.00;;;;;;6135825;23;20421;-83
2021/08/23 05:24:05;;;;;;;8.00;7.30;;;16.00;1.00;;;;;;6137312;23;20401;-83
2021/08/23 05:26:33;;;;;;;7.77;7.03;;;15.90;1.00;;;;;;6156632;23;20393;-81
2021/08/23 05:29:01;;;;;;;8.43;7.63;;;15.90;1.00;;;;;;6136537;23;20466;-83
2021/08/23 05:31:27;;;;;;;8.70;6.87;;;15.80;1.00;;;;;;6158957;23;20412;-82
2021/08/23 05:33:55;;;;;;;10.83;7.27;;;15.80;1.00;;;;;;6139154;23;20400;-82
2021/08/23 05:36:25;;;;;;;8.30;7.50;;;15.80;1.00;;;;;;6167696;23;20621;-82
2021/08/23 05:38:52;;;;;;;8.70;7.90;;;15.80;1.00;;;;;;6136131;23;20464;-82
2021/08/23 05:41:19;;;;;;;8.30;6.03;;;15.80;1.00;;;;;;6162709;23;20400;-84
2021/08/23 05:43:45;;;;;;;9.03;8.10;;;15.80;1.00;;;;;;6168407;23;20365;-84
2021/08/23 05:46:17;;;;;;;8.33;7.53;;;15.80;1.00;;;;;;6166228;23;20372;-86
2021/08/23 05:48:44;;;;;;;6.63;6.03;;;15.90;1.00;;;;;;6165901;23;21083;-83
2021/08/23 05:51:15;;;;;;;7.50;6.60;;;15.90;1.00;;;;;;6132299;23;21149;-82
2021/08/23 05:53:42;;;;;;;7.73;6.90;;;15.90;1.00;;;;;;6163282;23;20483;-83
2021/08/23 05:56:09;;;;;;;7.47;6.70;;;15.90;1.00;;;;;;6134502;23;20535;-81
2021/08/23 05:58:37;;;;;;;6.97;6.20;;;15.90;1.00;;;;;;6156618;23;20422;-82
2021/08/23 06:01:05;;;;;;;6.87;6.17;;;15.90;1.00;;;;;;6155656;23;20447;-82
2021/08/23 06:03:32;;;;;;;7.57;6.30;;;15.90;1.00;;;;;;6161873;23;20407;-81
2021/08/23 06:06:03;;;;;;;7.27;6.57;;;15.90;1.00;;;;;;6170129;23;20412;-82
2021/08/23 06:08:31;;;;;;;7.80;5.63;;;16.00;1.00;;;;;;6160854;23;20429;-81
2021/08/23 06:10:57;;;;;;;5.70;5.20;;;16.10;1.00;;;;;;6154441;23;20524;-80
2021/08/23 06:13:25;;;;;;;6.60;6.00;;;16.00;1.00;;;;;;6129411;23;20531;-80
2021/08/23 06:15:54;;;;;;;6.50;5.40;;;16.10;1.00;;;;;;6153347;23;20429;-80
2021/08/23 06:18:20;;;;;;;6.60;6.00;;;16.00;1.00;;;;;;6153862;23;20990;-81
2021/08/23 06:20:47;;;;;;;6.13;5.63;;;16.10;1.00;;;;;;6155927;23;20521;-81
2021/08/23 06:23:14;;;;;;;6.93;6.00;;;16.10;1.00;;;;;;6158246;23;20575;-83
2021/08/23 06:25:42;;;;;;;7.73;6.03;;;16.20;1.00;;;;;;6157763;23;20518;-81
2021/08/23 06:28:09;;;;;;;6.37;5.77;;;16.30;1.00;;;;;;6155148;23;20437;-80
2021/08/23 06:30:36;;;;;;;6.20;5.60;;;16.20;1.00;;;;;;6156497;23;21007;-80
2021/08/23 06:33:02;;;;;;;6.73;5.87;;;16.20;1.00;;;;;;6153125;23;20400;-82
2021/08/23 06:35:29;;;;;;;10.73;5.70;;;16.20;1.00;;;;;;6153985;23;20466;-81
2021/08/23 06:37:56;;;;;;;8.60;6.77;;;16.30;1.00;;;;;;6152678;23;20416;-81
2021/08/23 06:40:23;;;;;;;9.17;6.07;;;16.40;1.00;;;;;;6152640;23;20439;-81
2021/08/23 06:42:51;;;;;;;12.30;6.43;;;16.50;1.00;;;;;;6154831;23;20444;-82
2021/08/23 06:45:17;;;;;;;7.73;5.37;;;16.60;1.00;;;;;;6155248;23;20911;-80
2021/08/23 06:47:44;;;;;;;9.07;5.20;;;16.70;1.00;;;;;;6158307;23;20465;-81
2021/08/23 06:50:11;;;;;;;6.67;4.90;;;16.80;1.00;;;;;;6168282;23;20393;-80
2021/08/23 06:52:39;;;;;;;6.83;5.33;;;16.80;1.00;;;;;;6167814;23;20886;-81
2021/08/23 06:55:07;;;;;;;8.20;5.13;;;16.90;1.00;;;;;;6151844;23;20413;-82
2021/08/23 06:57:33;;;;;;;6.50;5.37;;;16.90;1.00;;;;;;6151871;23;20437;-81
2021/08/23 07:00:01;;;;;;;5.57;4.70;;;16.90;1.00;;;;;;6152345;23;20703;-80
2021/08/23 07:02:28;;;;;;;5.53;5.03;;;17.00;1.00;;;;;;6150414;23;21269;-79
2021/08/23 07:04:55;;;;;;;7.73;5.27;;;17.00;1.00;;;;;;6153237;23;20385;-80
2021/08/23 07:07:22;;;;;;;7.47;5.00;;;17.10;1.00;;;;;;6153121;23;20413;-80
2021/08/23 07:09:49;;;;;;;5.83;4.67;;;17.00;1.00;;;;;;6153773;23;21277;-80
2021/08/23 07:12:16;;;;;;;5.70;4.70;;;17.00;1.00;;;;;;6162334;23;20394;-81
2021/08/23 07:14:43;;;;;;;6.33;5.83;;;17.00;1.00;;;;;;6163288;23;20743;-81
2021/08/23 07:17:11;;;;;;;5.80;4.90;;;16.90;1.00;;;;;;6134727;23;20409;-79
2021/08/23 07:19:37;;;;;;;10.93;5.90;;;16.90;1.00;;;;;;6159185;23;20411;-79
2021/08/23 07:22:04;;;;;;;8.60;6.07;;;16.80;1.00;;;;;;6154134;23;20389;-81
2021/08/23 07:24:31;;;;;;;7.37;6.07;;;16.80;1.00;;;;;;6153977;23;20413;-82
2021/08/23 07:27:04;;;;;;;6.83;5.00;;;16.80;1.00;;;;;;6156112;23;20406;-81
2021/08/23 07:29:30;;;;;;;5.70;5.07;;;16.80;1.00;;;;;;6128274;23;20505;-81
2021/08/23 07:31:57;;;;;;;6.07;5.47;;;16.80;1.00;;;;;;6158729;23;20405;-80
2021/08/23 07:34:25;;;;;;;7.87;5.90;;;16.90;1.00;;;;;;6155189;23;20459;-81
2021/08/23 07:36:52;;;;;;;8.03;5.00;;;16.90;1.00;;;;;;6155147;23;20378;-82
2021/08/23 07:39:19;;;;;;;9.33;6.20;;;16.90;1.00;;;;;;6157829;23;20505;-81
2021/08/23 07:41:46;;;;;;;6.77;4.80;;;16.90;1.00;;;;;;6158695;23;20688;-81
2021/08/23 07:44:13;;;;;;;6.67;5.27;;;16.90;1.00;;;;;;6134667;23;20452;-82
2021/08/23 07:46:40;;;;;;;7.60;5.90;;;16.90;1.00;;;;;;6152728;23;20506;-81
2021/08/23 07:49:07;;;;;;;7.87;5.63;;;16.90;1.00;;;;;;6152879;23;20509;-82
2021/08/23 07:51:35;;;;;;;6.37;5.77;;;16.90;1.00;;;;;;6154392;23;20390;-81
2021/08/23 07:54:03;;;;;;;6.33;5.17;;;16.90;1.00;;;;;;6151170;23;21567;-81
2021/08/23 07:56:30;;;;;;;7.50;5.23;;;16.90;1.00;;;;;;6155910;23;21512;-81
2021/08/23 07:58:57;;;;;;;6.80;5.17;;;16.80;1.00;;;;;;6126731;23;20636;-81
2021/08/23 08:01:24;;;;;;;5.80;4.80;;;16.80;1.00;;;;;;6153282;23;20835;-82
2021/08/23 08:03:51;;;;;;;8.03;4.77;;;16.70;1.00;;;;;;6163844;23;20426;-81
2021/08/23 08:06:18;;;;;;;3.73;3.33;;;16.70;1.00;;;;;;6161255;23;20484;-82
2021/08/23 08:08:46;;;;;;;4.73;4.33;;;16.60;1.00;;;;;;6126255;23;20491;-82
2021/08/23 08:11:13;;;;;;;5.57;4.23;;;16.40;1.00;;;;;;6154231;23;20391;-82
2021/08/23 08:13:40;;;;;;;7.30;4.90;;;16.30;1.00;;;;;;6152497;23;20391;-82
2021/08/23 08:16:08;;;;;;;7.20;4.37;;;16.30;1.00;;;;;;6150482;23;20369;-82
2021/08/23 08:18:36;;;;;;;7.33;4.20;;;16.20;1.00;;;;;;6152042;23;20925;-81
2021/08/23 08:21:03;;;;;;;5.60;4.40;;;16.20;1.00;;;;;;6149962;23;20428;-80
2021/08/23 08:23:31;;;;;;;5.97;4.30;;;16.10;1.00;;;;;;6151106;23;20511;-81
2021/08/23 08:25:59;;;;;;;5.40;4.20;;;16.10;1.00;;;;;;6155365;23;20494;-81
2021/08/23 08:28:26;;;;;;;4.40;4.00;;;16.00;1.00;;;;;;6151589;23;20535;-80
2021/08/23 08:30:53;;;;;;;5.70;4.10;;;16.00;1.00;;;;;;6154074;23;20396;-80
2021/08/23 08:33:20;;;;;;;6.13;4.27;;;16.00;1.00;;;;;;6126236;23;21581;-81
2021/08/23 08:35:47;;;;;;;4.50;4.07;;;16.00;1.00;;;;;;6153239;23;20960;-81
2021/08/23 08:38:13;;;;;;;6.23;4.80;;;16.00;1.00;;;;;;6155024;23;20431;-80
2021/08/23 08:40:41;;;;;;;5.10;4.17;;;15.90;1.00;;;;;;6159609;23;20394;-83
2021/08/23 08:43:10;;;;;;;4.77;4.00;;;16.00;1.00;;;;;;6130291;23;20484;-82
2021/08/23 08:45:38;;;;;;;5.53;4.50;;;15.90;1.00;;;;;;6150616;23;20404;-81
2021/08/23 08:48:06;;;;;;;5.43;4.27;;;16.00;1.00;;;;;;6153881;23;20461;-82
2021/08/23 08:50:33;;;;;;;7.63;4.83;;;16.00;1.00;;;;;;6153117;23;21055;-82
2021/08/23 08:53:05;;;;;;;4.70;4.20;;;16.00;1.00;;;;;;6127681;23;20497;-82
2021/08/23 08:55:35;;;;;;;13.37;5.20;;;16.00;1.00;;;;;;6159373;23;20424;-81
2021/08/23 08:58:05;;;;;;;9.00;8.17;;;16.00;1.00;;;;;;6157509;23;21293;-82
2021/08/23 09:00:33;;;;;;;8.73;6.13;;;15.90;1.00;;;;;;6157144;23;20899;-81
2021/08/23 09:03:00;;;;;;;5.33;4.50;;;15.90;1.00;;;;;;6157012;23;20499;-83
2021/08/23 09:05:36;;;;;;;6.37;4.83;;;15.80;1.00;;;;;;6155098;23;20404;-80
2021/08/23 09:08:03;;;;;;;5.33;3.70;;;15.80;1.00;;;;;;6153982;23;20661;-81
2021/08/23 09:10:31;;;;;;;8.20;4.30;;;15.80;1.00;;;;;;6153031;23;20466;-80
2021/08/23 09:13:06;;;;;;;6.43;3.30;;;15.70;1.00;;;;;;6153936;23;20436;-82
2021/08/23 09:15:34;;;;;;;4.77;3.63;;;15.60;1.00;;;;;;6151530;23;20443;-82
2021/08/23 09:18:04;;;;;;;5.13;3.73;;;15.60;1.00;;;;;;6129465;23;20470;-83
2021/08/23 09:20:31;;;;;;;5.00;3.43;;;15.60;1.00;;;;;;6155468;23;20432;-87
2021/08/23 09:23:14;;;;;;;4.57;3.70;;;15.60;1.00;;;;;;6156498;23;20392;-81
2021/08/23 09:25:47;;;;;;;3.77;3.40;;;15.70;1.00;;;;;;6126510;23;20986;-81
2021/08/23 09:28:15;;;;;;;4.67;3.20;;;15.70;1.00;;;;;;6131672;23;20409;-81
2021/08/23 09:30:58;;;;;;;3.03;2.73;;;15.80;1.00;;;;;;6154617;23;20438;-82
2021/08/23 09:33:25;;;;;;;4.67;3.20;;;15.80;1.00;;;;;;6128844;23;20435;-81
2021/08/23 09:35:53;;;;;;;4.10;3.50;;;15.80;1.00;;;;;;6177279;23;20452;-80
2021/08/23 09:38:20;;;;;;;4.43;3.13;;;15.90;1.00;;;;;;6151366;23;20402;-82
2021/08/23 09:40:50;;;;;;;5.37;3.57;;;15.90;1.00;;;;;;6130091;23;20440;-81
2021/08/23 09:43:17;;;;;;;3.90;3.17;;;15.90;1.00;;;;;;6161692;23;20440;-83
2021/08/23 09:45:50;;;;;;;3.70;2.40;;;15.90;1.00;;;;;;6151190;23;20383;-85
2021/08/23 09:48:18;;;;;;;3.30;2.87;;;15.90;1.00;;;;;;6170958;23;20377;-82
2021/08/23 09:50:47;;;;;;;6.93;3.70;;;15.90;1.00;;;;;;6181041;23;20372;-83
2021/08/23 09:53:16;;;;;;;3.90;2.97;;;15.90;1.00;;;;;;6179528;23;20398;-83
2021/08/23 09:55:46;;;;;;;4.40;3.17;;;15.90;1.00;;;;;;6175007;23;20384;-83
2021/08/23 09:58:14;;;;;;;2.93;2.50;;;15.90;1.00;;;;;;6168344;23;20403;-83
2021/08/23 10:00:42;;;;;;;4.10;2.70;;;15.90;1.00;;;;;;6139178;23;20482;-82
2021/08/23 10:03:14;;;;;;;3.10;2.80;;;15.90;1.00;;;;;;6136631;23;20397;-82
2021/08/23 10:05:44;;;;;;;4.17;2.83;;;15.90;1.00;;;;;;6130501;23;20427;-83
2021/08/23 10:08:15;;;;;;;5.03;2.50;;;16.00;1.00;;;;;;6154249;23;20585;-83
2021/08/23 10:10:43;;;;;;;4.37;2.93;;;16.00;1.00;;;;;;6131602;23;20435;-84
2021/08/23 10:13:10;;;;;;;3.97;3.00;;;16.00;1.00;;;;;;6159365;23;21233;-84
2021/08/23 10:15:38;;;;;;;3.67;2.90;;;16.00;1.00;;;;;;6154883;23;20397;-83
2021/08/23 10:18:06;;;;;;;3.73;2.53;;;16.10;1.00;;;;;;6159346;23;20448;-83
2021/08/23 10:20:35;;;;;;;22.33;21.13;;;16.10;1.00;;;;;;6135384;23;20403;-83
2021/08/23 10:23:03;;;;;;;2.83;2.53;;;16.10;1.00;;;;;;6161095;23;20491;-83
2021/08/23 10:25:31;;;;;;;2.80;2.23;;;16.10;1.00;;;;;;6157107;23;20435;-84
2021/08/23 10:28:08;;;;;;;3.27;2.30;;;16.10;1.00;;;;;;6131622;23;20412;-83
2021/08/23 10:30:37;;;;;;;4.97;2.47;;;16.10;1.00;;;;;;6129527;23;20384;-83
2021/08/23 10:33:15;;;;;;;5.70;2.30;;;16.10;1.00;;;;;;6134438;23;20494;-83
2021/08/23 10:35:50;;;;;;;3.83;2.47;;;16.00;1.00;;;;;;6160947;23;20459;-83
2021/08/23 10:38:19;;;;;;;3.97;2.30;;;16.00;1.00;;;;;;6160536;23;20412;-84
2021/08/23 10:40:48;;;;;;;2.93;2.43;;;16.00;1.00;;;;;;6136533;23;20475;-82
2021/08/23 10:43:19;;;;;;;7.50;3.50;;;15.80;1.00;;;;;;6131328;23;20435;-83
2021/08/23 10:45:49;;;;;;;4.33;3.30;;;15.60;1.00;;;;;;6158110;23;21289;-82
2021/08/23 10:48:18;;;;;;;4.30;3.10;;;15.40;1.00;;;;;;6158720;23;21224;-85
2021/08/23 10:50:59;;;;;;;6.47;3.90;;;15.40;1.00;;;;;;6172836;23;20427;-85
2021/08/23 10:53:34;;;;;;;3.90;3.10;;;15.30;1.00;;;;;;6149659;23;20400;-82
2021/08/23 10:56:13;;;;;;;4.70;3.73;;;15.30;1.00;;;;;;6157586;23;20372;-84
2021/08/23 10:58:40;;;;;;;5.17;3.70;;;15.30;1.00;;;;;;6127646;23;20404;-83
2021/08/23 11:01:18;;;;;;;4.80;3.50;;;15.40;1.00;;;;;;6131088;23;20427;-83
2021/08/23 11:03:45;;;;;;;5.57;3.40;;;15.40;1.00;;;;;;6156374;23;20356;-83
2021/08/23 11:06:13;;;;;;;6.30;3.87;;;15.40;1.00;;;;;;6132730;23;20398;-81
2021/08/23 11:08:42;;;;;;;4.20;3.80;;;15.30;1.00;;;;;;6153329;23;20628;-80
2021/08/23 11:11:14;;;;;;;5.63;3.40;;;15.30;1.00;;;;;;6158572;23;20436;-81
2021/08/23 11:13:45;;;;;;;5.77;4.20;;;15.30;1.00;;;;;;6128352;23;20400;-81
2021/08/23 11:16:17;;;;;;;5.00;3.90;;;15.30;1.00;;;;;;6128708;23;20515;-81
2021/08/23 11:18:49;;;;;;;6.30;5.70;;;15.40;1.00;;;;;;6134693;23;20423;-81
2021/08/23 11:21:37;;;;;;;8.27;4.60;;;15.60;1.00;;;;;;6133108;23;20421;-81
2021/08/23 11:24:12;;;;;;;5.77;5.17;;;15.70;1.00;;;;;;6155808;23;20413;-82
2021/08/23 11:27:07;;;;;;;6.57;5.17;;;15.70;1.00;;;;;;6131568;23;20631;-81
2021/08/23 11:33:08;;;;;;;5.57;4.67;;;15.80;1.00;;;;;;6123321;23;20419;-80
2021/08/23 11:36:04;;;;;;;7.10;4.80;;;15.80;1.00;;;;;;6130448;23;20549;-81
2021/08/23 11:39:16;;;;;;;;;;;;;;;;;;;;;
2021/08/23 11:42:00;;;;;;;7.03;4.70;;;16.00;1.00;;;;;;6162240;23;20471;-81
2021/08/23 11:44:42;;;;;;;8.07;6.50;;;16.20;1.00;;;;;;6179464;23;20799;-78
2021/08/23 11:47:12;;;;;;;6.80;5.13;;;16.40;1.00;;;;;;6143420;23;20404;-81
2021/08/23 11:53:07;;;;;;;5.13;4.63;;;16.60;1.00;;;;;;6157019;23;20408;-80
2021/08/23 11:55:41;;;;;;;6.33;4.70;;;16.80;1.00;;;;;;6129762;23;20406;-81
2021/08/23 11:58:14;;;;;;;6.40;4.63;;;16.90;1.00;;;;;;6129901;23;20413;-81
2021/08/23 12:00:48;;;;;;;5.37;4.60;;;17.00;1.00;;;;;;6130485;23;20460;-82
2021/08/23 12:03:17;;;;;;;5.47;4.50;;;17.00;1.00;;;;;;6128261;23;20492;-81
2021/08/23 12:06:06;;;;;;;5.67;4.07;;;17.10;1.00;;;;;;6129029;23;20426;-81
2021/08/23 12:08:36;;;;;;;5.53;3.70;;;17.10;1.00;;;;;;6156313;23;20414;-80
2021/08/23 12:11:10;;;;;;;6.10;3.90;;;17.20;1.00;;;;;;6127477;23;20932;-80
2021/08/23 12:13:38;;;;;;;5.80;4.03;;;17.30;1.00;;;;;;6155454;23;20461;-80
2021/08/23 12:16:08;;;;;;;5.60;3.30;;;17.40;1.00;;;;;;6134155;23;20431;-82
2021/08/23 12:18:36;;;;;;;4.83;4.10;;;17.50;1.00;;;;;;6165602;23;20406;-81
2021/08/23 12:21:14;;;;;;;5.90;4.17;;;17.60;1.00;;;;;;6137056;23;20526;-79
2021/08/23 12:23:49;;;;;;;5.60;4.60;;;17.70;1.00;;;;;;6169615;23;20490;-81
2021/08/23 12:26:24;;;;;;;5.50;2.97;;;17.90;1.00;;;;;;6140672;23;20378;-81
2021/08/23 12:28:56;;;;;;;6.37;3.40;;;18.00;1.00;;;;;;6135481;23;20381;-82
2021/08/23 12:31:23;;;;;;;6.47;3.70;;;18.10;1.00;;;;;;6157347;23;20494;-82
2021/08/23 12:33:50;;;;;;;4.40;3.70;;;18.20;1.00;;;;;;6163558;23;20394;-80
2021/08/23 12:36:17;;;;;;;4.93;2.73;;;18.30;1.00;;;;;;6154510;23;20446;-81
2021/08/23 12:38:44;;;;;;;5.10;3.87;;;18.40;1.00;;;;;;6129654;23;20487;-79
2021/08/23 12:41:11;;;;;;;4.83;2.77;;;18.50;1.00;;;;;;6160098;23;20594;-82
2021/08/23 12:43:40;;;;;;;18.17;15.50;;;18.70;1.00;;;;;;6165573;23;20413;-80
2021/08/23 12:46:07;;;;;;;7.53;5.20;;;18.80;1.00;;;;;;6168800;23;20412;-79
2021/08/23 12:48:35;;;;;;;8.00;3.87;;;18.90;1.00;;;;;;6159357;23;20502;-79
2021/08/23 12:51:04;;;;;;;7.53;3.57;;;18.90;1.00;;;;;;6157500;23;20395;-79
2021/08/23 12:53:31;;;;;;;3.50;2.83;;;18.90;1.00;;;;;;6157687;23;20502;-79
2021/08/23 12:55:58;;;;;;;5.77;3.50;;;19.00;1.00;;;;;;6155567;23;20869;-79
2021/08/23 12:58:26;;;;;;;8.17;3.47;;;19.20;1.00;;;;;;6155991;23;20446;-80
2021/08/23 13:00:54;;;;;;;7.53;3.87;;;19.30;1.00;;;;;;6156963;23;20859;-80
2021/08/23 13:03:20;;;;;;;7.10;3.53;;;19.40;1.00;;;;;;6164715;23;21277;-81
2021/08/23 13:05:47;;;;;;;7.87;4.10;;;19.50;1.00;;;;;;6162437;23;20466;-80